Rankin, Michigan
Current Conditions -  °F | °C
As of 4:53 PM on Friday 31 Oct 2014 (Local Time) from KFNT Reporting Station
Light Rain Light Rain  
Wind Chill: 28°   Ceiling: 1200
Heat Index: 38°   Visibility: 8mi
Dew Point: 33°   Wind: 20mph
Humidity: 83%   Direction: 10°N
Pressure: 30.02"   Gusts: 29mph
Location:  42.9382°N, 83.8244°W
Report Text: KFNT 312053Z 01017G25KT 8SM -RA BKN012 OVC020 03/01 A3002 RMK AO2 PK WND 02031/1954 SNB20E33 SLP172 P0000 60007 T00330006 53030
Loading
Personal Weather Stations






























Interactive Weather Map New forecast layout! Learn more

10-Day Weather Forecast

Advertisements
Track Severe Weather on mobile